Time;durP1;ratioP1;P1;durP2;ratioP2;P2;SDS_P1;SDS_P2;PMS_P1;PMS_P2;Temp;Humidity;BMP_temperature;BMP_pressure;BME280_temperature;BME280_humidity;BME280_pressure;Samples;Min_cycle;Max_cycle;Signal;HPM_P1;HPM_P2
2023/04/14 00:02:41;;;;;;;11.38;2.78;;;6.70;99.90;;;;;;6244130;22;20012;-93
2023/04/14 00:05:47;;;;;;;;;;;;;;;;;;;;;
2023/04/14 00:20:07;;;;;;;8.85;2.42;;;6.60;99.90;;;;;;6078881;23;20502;-92
2023/04/14 00:26:32;;;;;;;9.95;2.50;;;6.60;99.90;;;;;;6246709;23;20074;-91
2023/04/14 00:29:04;;;;;;;8.60;2.25;;;6.60;99.90;;;;;;6114700;23;20024;-92
2023/04/14 00:42:06;;;;;;;10.32;2.17;;;6.50;99.90;;;;;;6245451;22;20031;-93
2023/04/14 00:49:18;;;;;;;;;;;6.50;99.90;;;;;;6147916;23;20397;-91
2023/04/14 00:55:56;;;;;;;8.57;2.25;;;6.40;99.90;;;;;;6114804;23;20022;-92
2023/04/14 01:05:52;;;;;;;11.15;1.92;;;6.30;99.90;;;;;;6036763;23;20522;-93
2023/04/14 01:11:44;;;;;;;8.05;1.80;;;6.30;99.90;;;;;;6066329;23;20099;-92
2023/04/14 01:15:18;;;;;;;10.57;2.00;;;6.30;99.90;;;;;;6048708;23;20423;-92
2023/04/14 01:25:24;;;;;;;;;;;;;;;;;;;;;
2023/04/14 01:28:28;;;;;;;8.07;2.00;;;6.10;99.90;;;;;;5990391;23;20381;-92
2023/04/14 01:31:48;;;;;;;;;;;;;;;;;;;;;
2023/04/14 01:45:42;;;;;;;7.72;1.70;;;6.00;99.90;;;;;;6140975;23;20025;-93
2023/04/14 01:48:44;;;;;;;7.53;2.17;;;5.90;99.90;;;;;;6079233;23;20092;-91
2023/04/14 01:51:44;;;;;;;9.85;2.00;;;5.90;99.90;;;;;;6190844;23;20017;-92
2023/04/14 01:54:43;;;;;;;;;;;;;;;;;;;;;
2023/04/14 01:57:41;;;;;;;9.20;1.80;;;5.90;99.90;;;;;;6150944;23;20075;-92
2023/04/14 02:04:01;;;;;;;7.30;1.80;;;5.90;99.90;;;;;;6155246;23;20029;-92
2023/04/14 02:06:36;;;;;;;6.97;1.58;;;5.80;99.90;;;;;;6066379;23;20090;-92
2023/04/14 02:09:35;;;;;;;8.80;2.00;;;5.80;99.90;;;;;;6050363;23;20017;-92
2023/04/14 02:12:53;;;;;;;7.70;1.67;;;5.70;99.90;;;;;;6155061;23;20028;-92
2023/04/14 02:15:47;;;;;;;7.80;2.10;;;5.70;99.90;;;;;;6146667;23;20038;-92
2023/04/14 02:18:55;;;;;;;;;;;;;;;;;;;;;
2023/04/14 02:29:17;;;;;;;7.53;1.83;;;5.60;99.90;;;;;;6128629;23;20021;-92
2023/04/14 02:32:03;;;;;;;7.80;2.00;;;5.60;99.90;;;;;;6173966;23;20077;-91
2023/04/14 02:35:39;;;;;;;12.80;2.00;;;5.60;99.90;;;;;;6172782;23;20039;-93
2023/04/14 02:38:36;;;;;;;16.77;1.90;;;5.60;99.90;;;;;;6159860;23;20016;-92
2023/04/14 02:45:23;;;;;;;6.20;1.90;;;5.60;99.90;;;;;;6189478;23;20032;-92
2023/04/14 02:49:11;;;;;;;;;;;;;;;;;;;;;
2023/04/14 02:55:27;;;;;;;;;;;;;;;;;;;;;
2023/04/14 02:58:30;;;;;;;;;;;;;;;;;;;;;
2023/04/14 03:01:41;;;;;;;7.75;1.80;;;5.50;99.90;;;;;;6148850;23;20016;-92
2023/04/14 03:05:03;;;;;;;9.10;1.83;;;5.50;99.90;;;;;;6215789;23;20074;-92
2023/04/14 03:09:05;;;;;;;8.75;2.03;;;5.50;99.90;;;;;;6057093;23;20088;-93
2023/04/14 03:12:17;;;;;;;10.02;2.00;;;5.40;99.90;;;;;;6217288;23;20024;-92
2023/04/14 03:18:48;;;;;;;12.55;1.88;;;5.40;99.90;;;;;;6159188;23;20100;-92
2023/04/14 03:24:52;;;;;;;7.90;1.90;;;5.40;99.90;;;;;;6187204;23;20092;-92
2023/04/14 03:30:31;;;;;;;9.70;2.10;;;5.30;99.90;;;;;;6182804;23;20437;-92
2023/04/14 03:49:55;;;;;;;8.52;2.17;;;5.20;99.90;;;;;;6118504;23;20076;-92
2023/04/14 03:53:19;;;;;;;8.82;2.25;;;5.20;99.90;;;;;;6184229;23;20017;-92
2023/04/14 03:56:31;;;;;;;7.53;2.10;;;5.20;99.90;;;;;;6143464;23;20021;-92
2023/04/14 03:59:35;;;;;;;7.95;2.42;;;5.10;99.90;;;;;;6186191;23;20049;-93
2023/04/14 04:05:40;;;;;;;11.57;2.45;;;5.10;99.90;;;;;;6186154;23;20028;-92
2023/04/14 04:11:10;;;;;;;;;;;;;;;;;;;;;
2023/04/14 04:13:56;;;;;;;9.05;2.15;;;5.10;99.90;;;;;;6057200;23;20018;-92
2023/04/14 04:16:57;;;;;;;9.82;2.42;;;5.00;99.90;;;;;;6132331;23;20024;-92
2023/04/14 04:19:55;;;;;;;;;;;;;;;;;;;;;
2023/04/14 04:29:25;;;;;;;;;;;;;;;;;;;;;
2023/04/14 04:32:40;;;;;;;9.18;2.38;;;5.00;99.90;;;;;;6155448;23;20456;-92
2023/04/14 04:36:04;;;;;;;;;;;;;;;;;;;;;
2023/04/14 04:39:31;;;;;;;8.15;2.20;;;5.00;99.90;;;;;;6180818;23;20024;-92
2023/04/14 04:45:47;;;;;;;7.80;2.13;;;4.90;99.90;;;;;;6194187;23;20020;-92
2023/04/14 04:48:43;;;;;;;8.43;2.33;;;4.90;99.90;;;;;;6187605;23;20021;-92
2023/04/14 04:51:32;;;;;;;;;;;;;;;;;;;;;
2023/04/14 04:54:52;;;;;;;;;;;;;;;;;;;;;
2023/04/14 05:00:53;;;;;;;6.50;2.30;;;4.90;99.90;;;;;;6217887;23;20040;-92
2023/04/14 05:03:44;;;;;;;8.57;2.15;;;4.90;99.90;;;;;;6106339;23;20014;-93
2023/04/14 05:06:46;;;;;;;8.77;2.40;;;4.90;99.90;;;;;;6191529;23;20055;-93
2023/04/14 05:09:29;;;;;;;8.40;2.30;;;4.90;99.90;;;;;;6217957;23;20017;-93
2023/04/14 05:12:39;;;;;;;11.02;2.10;;;4.90;99.90;;;;;;6218207;23;20015;-92
2023/04/14 05:15:36;;;;;;;7.60;2.10;;;4.80;99.90;;;;;;6185282;23;20088;-92
2023/04/14 05:18:42;;;;;;;7.57;2.22;;;4.90;99.90;;;;;;6194221;23;20024;-93
2023/04/14 05:21:32;;;;;;;10.68;2.13;;;4.80;99.90;;;;;;6173881;23;20485;-92
2023/04/14 05:24:26;;;;;;;7.73;2.50;;;4.80;99.90;;;;;;6125984;23;20089;-93
2023/04/14 05:30:36;;;;;;;9.57;2.80;;;4.80;99.90;;;;;;6126072;23;20057;-93
2023/04/14 05:36:24;;;;;;;;;;;;;;;;;;;;;
2023/04/14 05:39:31;;;;;;;7.30;2.50;;;4.80;99.90;;;;;;6125383;23;20058;-93
2023/04/14 05:42:17;;;;;;;10.48;2.42;;;4.80;99.90;;;;;;6082131;23;20018;-93
2023/04/14 05:48:01;;;;;;;10.80;2.53;;;4.80;99.90;;;;;;6159498;23;20026;-93
2023/04/14 05:51:21;;;;;;;6.75;2.63;;;4.80;99.90;;;;;;6132240;23;20370;-93
2023/04/14 05:54:17;;;;;;;8.38;2.75;;;4.90;99.90;;;;;;6088049;23;20072;-92
2023/04/14 06:00:41;;;;;;;8.57;2.70;;;4.90;99.90;;;;;;6061360;23;20021;-92
2023/04/14 06:03:21;;;;;;;12.93;3.17;;;4.90;99.90;;;;;;6044173;23;20026;-93
2023/04/14 06:09:38;;;;;;;11.85;3.10;;;4.90;99.90;;;;;;6039909;23;20029;-93
2023/04/14 06:13:02;;;;;;;10.23;2.28;;;5.00;99.90;;;;;;6022713;23;20019;-92
2023/04/14 06:16:11;;;;;;;8.30;2.90;;;5.10;99.90;;;;;;6037855;23;20498;-92
2023/04/14 06:18:42;;;;;;;7.68;2.47;;;5.20;99.90;;;;;;5995212;23;20122;-93
2023/04/14 06:21:55;;;;;;;7.90;2.65;;;5.20;99.90;;;;;;6068007;23;20075;-92
2023/04/14 06:24:47;;;;;;;7.43;2.45;;;5.20;99.90;;;;;;6043690;23;20099;-92
2023/04/14 06:30:59;;;;;;;8.95;2.53;;;5.40;99.90;;;;;;6018111;23;20023;-93
2023/04/14 06:37:05;;;;;;;8.38;2.50;;;5.60;99.90;;;;;;6034056;23;20027;-92
2023/04/14 06:47:13;;;;;;;;;;;;;;;;;;;;;
2023/04/14 06:50:15;;;;;;;11.40;2.53;;;6.10;99.90;;;;;;6131444;23;20018;-92
2023/04/14 06:54:11;;;;;;;;;;;;;;;;;;;;;
2023/04/14 07:03:23;;;;;;;8.60;2.28;;;6.70;99.90;;;;;;6116394;23;20022;-93
2023/04/14 07:17:11;;;;;;;14.68;2.70;;;7.40;99.90;;;;;;6173518;23;20110;-93
2023/04/14 07:32:16;;;;;;;;;;;;;;;;;;;;;
2023/04/14 07:35:52;;;;;;;;;;;;;;;;;;;;;
2023/04/14 07:47:03;;;;;;;8.98;2.30;;;8.50;99.90;;;;;;6118034;23;20033;-93
2023/04/14 07:53:21;;;;;;;;;;;;;;;;;;;;;
2023/04/14 08:00:21;;;;;;;;;;;;;;;;;;;;;
2023/04/14 08:07:55;;;;;;;;;;;;;;;;;;;;;
2023/04/14 08:14:26;;;;;;;9.30;2.40;;;9.40;98.50;;;;;;6180815;23;20020;-93
2023/04/14 08:18:02;;;;;;;;;;;;;;;;;;;;;
2023/04/14 08:46:03;;;;;;;8.20;1.95;;;10.30;97.70;;;;;;6033739;23;20046;-93
2023/04/14 08:54:10;;;;;;;;;;;;;;;;;;;;;
2023/04/14 09:13:50;;;;;;;11.40;2.78;;;11.20;96.40;;;;;;6215419;23;20016;-94
2023/04/14 09:21:26;;;;;;;12.38;2.40;;;11.40;96.70;;;;;;6070782;23;20018;-92
2023/04/14 09:31:32;;;;;;;8.82;2.10;;;11.70;95.80;;;;;;6087671;23;20076;-93
2023/04/14 09:42:06;;;;;;;10.13;2.30;;;12.00;95.80;;;;;;6127309;23;20071;-94
2023/04/14 09:45:08;;;;;;;;;;;;;;;;;;;;;
2023/04/14 09:57:03;;;;;;;;;;;;;;;;;;;;;
2023/04/14 10:00:14;;;;;;;9.15;2.33;;;12.60;94.70;;;;;;6217963;22;20040;-94
2023/04/14 10:06:11;;;;;;;8.10;2.20;;;12.80;94.80;;;;;;6191328;23;20042;-94
2023/04/14 10:11:46;;;;;;;8.43;2.38;;;13.00;94.80;;;;;;6190840;23;20024;-94
2023/04/14 10:15:11;;;;;;;11.68;2.67;;;13.10;94.70;;;;;;6218336;23;20083;-94
2023/04/14 10:18:07;;;;;;;11.32;2.47;;;13.10;93.00;;;;;;6190731;23;20068;-96
2023/04/14 10:20:58;;;;;;;11.02;2.42;;;13.30;92.40;;;;;;6218242;23;20020;-94
2023/04/14 10:23:52;;;;;;;7.00;1.95;;;13.30;94.40;;;;;;6167319;23;20017;-95
2023/04/14 10:26:20;;;;;;;11.15;1.83;;;13.40;95.20;;;;;;6160555;23;20026;-94
2023/04/14 10:28:53;;;;;;;11.07;2.25;;;13.50;93.80;;;;;;6187802;23;20024;-94
2023/04/14 10:31:58;;;;;;;8.48;2.03;;;13.60;94.00;;;;;;6160509;23;20024;-95
2023/04/14 10:34:45;;;;;;;8.02;1.98;;;13.60;92.70;;;;;;6092615;23;20013;-94
2023/04/14 10:37:15;;;;;;;12.45;2.20;;;13.70;94.30;;;;;;6162105;23;20322;-94
2023/04/14 10:40:08;;;;;;;6.90;1.80;;;13.80;93.40;;;;;;6160391;23;20016;-94
2023/04/14 10:42:54;;;;;;;10.90;2.35;;;13.80;91.70;;;;;;6187609;23;20017;-94
2023/04/14 10:45:22;;;;;;;9.70;1.95;;;13.90;92.40;;;;;;6187110;23;20013;-94
2023/04/14 10:47:54;;;;;;;14.30;2.53;;;13.90;93.30;;;;;;6161301;23;20024;-95
2023/04/14 10:50:23;;;;;;;13.60;2.47;;;14.00;92.40;;;;;;6161811;23;20048;-94
2023/04/14 10:52:54;;;;;;;10.35;1.95;;;14.00;92.60;;;;;;6187324;23;20017;-93
2023/04/14 10:55:25;;;;;;;10.90;2.40;;;14.20;91.90;;;;;;6161245;23;20013;-94
2023/04/14 10:58:05;;;;;;;10.32;2.13;;;14.20;91.20;;;;;;6160750;23;20024;-93
2023/04/14 11:00:57;;;;;;;12.20;2.28;;;14.30;91.60;;;;;;6186433;23;20017;-93
2023/04/14 11:03:44;;;;;;;7.88;2.10;;;14.30;91.10;;;;;;6125588;23;20423;-93
2023/04/14 11:06:58;;;;;;;13.18;2.13;;;14.40;90.50;;;;;;6125473;23;20021;-93
2023/04/14 11:09:45;;;;;;;9.15;1.90;;;14.50;89.80;;;;;;6100708;23;20112;-93
2023/04/14 11:12:26;;;;;;;9.43;1.88;;;14.50;91.70;;;;;;6092053;23;20529;-92
2023/04/14 11:15:18;;;;;;;10.82;2.00;;;14.60;92.10;;;;;;6124569;23;20030;-93
2023/04/14 11:17:47;;;;;;;9.10;1.95;;;14.70;91.10;;;;;;6125029;23;20018;-92
2023/04/14 11:20:17;;;;;;;10.75;2.13;;;14.70;91.10;;;;;;6101104;23;20017;-93
2023/04/14 11:22:44;;;;;;;11.98;2.10;;;14.80;91.70;;;;;;6114703;23;20154;-93
2023/04/14 11:25:18;;;;;;;12.63;1.92;;;14.80;90.80;;;;;;6155179;23;20031;-92
2023/04/14 11:27:46;;;;;;;9.48;1.75;;;14.90;90.70;;;;;;6129251;23;20548;-93
2023/04/14 11:30:18;;;;;;;10.70;1.85;;;14.90;90.20;;;;;;6130183;23;20028;-92
2023/04/14 11:33:07;;;;;;;10.82;1.70;;;15.00;87.10;;;;;;6154786;23;20017;-92
2023/04/14 11:35:48;;;;;;;7.53;2.00;;;15.10;84.80;;;;;;6187001;23;20027;-93
2023/04/14 11:38:14;;;;;;;8.63;1.73;;;15.20;85.70;;;;;;6190763;23;20028;-93
2023/04/14 11:40:40;;;;;;;10.40;2.17;;;15.20;85.80;;;;;;6184569;23;20021;-92
2023/04/14 11:43:06;;;;;;;7.88;1.73;;;15.30;84.20;;;;;;6185721;23;20092;-93
2023/04/14 11:45:33;;;;;;;11.10;1.92;;;15.30;85.20;;;;;;6184845;23;20017;-92
2023/04/14 11:48:04;;;;;;;9.07;1.85;;;15.40;81.70;;;;;;6186908;23;20017;-94
2023/04/14 11:50:37;;;;;;;8.25;2.00;;;15.50;86.30;;;;;;6184179;23;20017;-93
2023/04/14 11:53:07;;;;;;;7.35;1.65;;;15.50;85.90;;;;;;6184647;23;20021;-92
2023/04/14 11:55:50;;;;;;;9.27;1.70;;;15.60;90.10;;;;;;6183865;23;20341;-92
2023/04/14 11:58:26;;;;;;;7.75;1.45;;;15.70;91.20;;;;;;6184841;23;20024;-92
2023/04/14 12:00:52;;;;;;;5.93;1.60;;;15.70;90.20;;;;;;6184334;23;20021;-91
2023/04/14 12:03:19;;;;;;;10.18;1.60;;;15.80;85.30;;;;;;6183253;23;20361;-92
2023/04/14 12:05:48;;;;;;;7.03;1.52;;;15.80;88.30;;;;;;6184641;23;20021;-93
2023/04/14 12:08:14;;;;;;;13.38;1.73;;;15.90;82.50;;;;;;6184547;23;20017;-91
2023/04/14 12:10:45;;;;;;;9.52;1.90;;;15.90;78.40;;;;;;6184857;23;20379;-90
2023/04/14 12:13:11;;;;;;;10.52;1.63;;;15.90;76.20;;;;;;6183413;23;20024;-90
2023/04/14 12:15:41;;;;;;;10.18;2.00;;;15.90;87.90;;;;;;6184954;23;20017;-89
2023/04/14 12:18:09;;;;;;;10.20;1.95;;;15.90;85.00;;;;;;6183538;23;20031;-93
2023/04/14 12:20:41;;;;;;;6.40;1.58;;;15.90;82.10;;;;;;6186191;23;20068;-89
2023/04/14 12:23:07;;;;;;;10.30;1.98;;;15.90;81.40;;;;;;6185415;23;20023;-91
2023/04/14 12:25:33;;;;;;;11.15;1.90;;;15.80;87.60;;;;;;6185477;23;20092;-90
2023/04/14 12:28:05;;;;;;;6.50;1.90;;;15.80;87.70;;;;;;6185945;23;20028;-94
2023/04/14 12:30:35;;;;;;;9.00;2.03;;;15.90;85.60;;;;;;6189597;23;20024;-94
2023/04/14 12:33:10;;;;;;;7.28;1.70;;;15.90;88.60;;;;;;6184862;23;20028;-93
2023/04/14 12:35:37;;;;;;;6.85;1.80;;;16.00;82.30;;;;;;6185323;23;20013;-94
2023/04/14 12:38:13;;;;;;;8.73;1.70;;;16.00;81.60;;;;;;6186125;23;20028;-94
2023/04/14 12:40:44;;;;;;;8.30;1.92;;;16.00;77.10;;;;;;6187077;23;20449;-96
2023/04/14 12:43:11;;;;;;;7.97;1.65;;;16.10;85.90;;;;;;6185456;23;20024;-92
2023/04/14 12:45:44;;;;;;;7.22;1.80;;;16.00;87.20;;;;;;6184553;23;20024;-93
2023/04/14 12:48:16;;;;;;;5.90;1.65;;;16.10;90.40;;;;;;6186267;23;20021;-91
2023/04/14 12:50:42;;;;;;;8.98;1.95;;;16.20;92.10;;;;;;6185909;23;20357;-95
2023/04/14 12:53:25;;;;;;;9.68;1.85;;;16.30;91.50;;;;;;6187121;23;20048;-96
2023/04/14 12:56:10;;;;;;;9.70;2.17;;;16.30;91.30;;;;;;6189392;23;20430;-95
2023/04/14 12:58:41;;;;;;;8.40;1.75;;;16.30;88.10;;;;;;6185719;23;20087;-94
2023/04/14 13:01:08;;;;;;;10.23;2.10;;;16.30;90.20;;;;;;6185066;23;20426;-95
2023/04/14 13:03:50;;;;;;;6.97;1.83;;;16.40;91.10;;;;;;6184918;23;20021;-93
2023/04/14 13:06:21;;;;;;;10.67;2.10;;;16.40;92.30;;;;;;6185267;23;20021;-92
2023/04/14 13:08:49;;;;;;;7.53;1.85;;;16.50;90.20;;;;;;6187374;23;20017;-96
2023/04/14 13:11:16;;;;;;;9.43;2.00;;;16.50;83.00;;;;;;6185346;23;20013;-95
2023/04/14 13:13:44;;;;;;;8.57;2.03;;;16.50;87.30;;;;;;6183543;23;20028;-90
2023/04/14 13:16:11;;;;;;;9.25;2.30;;;16.50;91.20;;;;;;6185296;23;20048;-94
2023/04/14 13:18:37;;;;;;;6.50;1.90;;;16.60;85.40;;;;;;6162399;23;20013;-95
2023/04/14 13:21:03;;;;;;;7.43;1.83;;;16.60;89.70;;;;;;6187754;23;20017;-94
2023/04/14 13:23:30;;;;;;;7.68;1.83;;;16.60;89.30;;;;;;6189884;23;20024;-95
2023/04/14 13:25:56;;;;;;;8.05;2.00;;;16.60;84.10;;;;;;6190110;23;20438;-96
2023/04/14 13:28:21;;;;;;;6.43;1.73;;;16.60;90.10;;;;;;6188144;23;20056;-93
2023/04/14 13:30:51;;;;;;;6.28;1.88;;;16.70;92.10;;;;;;6188469;23;20009;-93
2023/04/14 13:33:18;;;;;;;9.80;2.15;;;16.80;93.50;;;;;;6186330;23;20017;-94
2023/04/14 13:35:43;;;;;;;8.63;2.08;;;16.90;91.00;;;;;;6187451;23;20442;-94
2023/04/14 13:38:09;;;;;;;5.90;1.77;;;16.90;87.30;;;;;;6188013;23;20048;-92
2023/04/14 13:40:35;;;;;;;6.93;1.88;;;16.90;75.20;;;;;;6188227;23;20067;-94
2023/04/14 13:43:00;;;;;;;8.75;2.00;;;17.00;85.60;;;;;;6191558;23;20031;-93
2023/04/14 13:45:27;;;;;;;8.35;2.10;;;17.00;83.00;;;;;;6188774;23;20032;-92
2023/04/14 13:47:53;;;;;;;7.85;1.73;;;17.00;87.50;;;;;;6188439;23;20100;-93
2023/04/14 13:50:21;;;;;;;7.75;2.00;;;17.10;84.80;;;;;;6187792;23;20389;-94
2023/04/14 13:52:47;;;;;;;7.28;1.80;;;17.10;91.60;;;;;;6190362;23;20017;-94
2023/04/14 13:55:13;;;;;;;7.05;1.70;;;17.10;92.60;;;;;;6188218;23;20019;-94
2023/04/14 13:57:39;;;;;;;6.40;1.80;;;17.10;92.90;;;;;;6183418;23;20024;-96
2023/04/14 14:00:07;;;;;;;7.90;1.90;;;17.20;93.60;;;;;;6186955;23;20013;-95
2023/04/14 14:02:33;;;;;;;8.43;2.03;;;17.20;91.70;;;;;;6186539;23;20471;-92
2023/04/14 14:04:59;;;;;;;8.48;1.83;;;17.20;93.20;;;;;;6188562;23;20017;-95
2023/04/14 14:07:25;;;;;;;6.72;1.90;;;17.20;93.00;;;;;;6189600;23;20028;-96
2023/04/14 14:09:51;;;;;;;5.78;1.80;;;17.30;93.30;;;;;;6190039;23;20009;-96
2023/04/14 14:12:16;;;;;;;8.45;2.00;;;17.30;94.70;;;;;;6186909;23;20048;-95
2023/04/14 14:14:42;;;;;;;5.75;1.98;;;17.40;95.50;;;;;;6186207;23;20013;-92
2023/04/14 14:17:08;;;;;;;9.20;1.80;;;17.30;95.10;;;;;;6187394;23;20024;-95
2023/04/14 14:19:35;;;;;;;7.40;1.98;;;17.30;92.40;;;;;;6189190;23;20019;-96
2023/04/14 14:22:01;;;;;;;9.30;2.10;;;17.30;94.00;;;;;;6195903;23;20020;-96
2023/04/14 14:24:28;;;;;;;8.55;2.20;;;17.40;95.60;;;;;;6194181;23;20152;-96
2023/04/14 14:26:55;;;;;;;6.28;2.20;;;17.40;89.10;;;;;;6195509;23;20024;-94
2023/04/14 14:29:25;;;;;;;9.60;2.42;;;17.40;93.00;;;;;;6182363;23;20044;-94
2023/04/14 14:31:53;;;;;;;6.93;2.00;;;17.40;95.40;;;;;;6189904;23;20021;-96
2023/04/14 14:34:25;;;;;;;8.10;2.13;;;17.50;92.10;;;;;;6200822;23;20045;-96
2023/04/14 14:36:51;;;;;;;10.93;2.27;;;17.50;83.70;;;;;;6185512;23;20029;-91
2023/04/14 14:39:17;;;;;;;7.35;1.98;;;17.50;91.60;;;;;;6189109;23;20613;-90
2023/04/14 14:41:43;;;;;;;5.20;1.60;;;17.50;94.00;;;;;;6190312;23;20024;-91
2023/04/14 14:44:08;;;;;;;7.20;2.15;;;17.70;95.40;;;;;;6188282;23;20382;-90
2023/04/14 14:46:34;;;;;;;8.43;1.95;;;17.60;91.30;;;;;;6188024;23;20012;-92
2023/04/14 14:49:00;;;;;;;8.23;2.20;;;17.60;90.90;;;;;;6213855;23;20043;-90
2023/04/14 14:51:26;;;;;;;5.63;2.00;;;17.60;92.30;;;;;;6186332;23;20074;-90
2023/04/14 14:53:52;;;;;;;6.07;1.80;;;17.60;94.10;;;;;;6187616;23;20020;-92
2023/04/14 14:56:18;;;;;;;7.20;1.70;;;17.70;94.00;;;;;;6189529;23;20028;-93
2023/04/14 14:58:44;;;;;;;7.50;1.95;;;17.70;93.60;;;;;;6188879;23;20047;-94
2023/04/14 15:01:10;;;;;;;7.25;2.28;;;17.80;94.90;;;;;;6219106;23;20392;-96
2023/04/14 15:03:35;;;;;;;10.07;2.17;;;17.80;92.60;;;;;;6217784;23;20016;-95
2023/04/14 15:06:01;;;;;;;6.90;2.00;;;17.70;92.80;;;;;;6218216;23;20028;-96
2023/04/14 15:08:26;;;;;;;9.32;1.98;;;17.70;92.90;;;;;;6217139;23;20393;-92
2023/04/14 15:10:52;;;;;;;8.07;2.08;;;17.60;93.40;;;;;;6220017;23;20445;-94
2023/04/14 15:13:18;;;;;;;8.50;1.90;;;17.50;88.10;;;;;;6198499;23;20016;-93
2023/04/14 15:15:43;;;;;;;7.72;2.08;;;17.50;87.20;;;;;;6199578;23;20017;-92
2023/04/14 15:18:10;;;;;;;6.43;1.83;;;17.50;85.90;;;;;;6199509;23;20512;-93
2023/04/14 15:20:36;;;;;;;6.60;2.00;;;17.50;90.00;;;;;;6189850;23;20044;-95
2023/04/14 15:23:02;;;;;;;6.95;1.75;;;17.50;90.40;;;;;;6189959;23;20353;-94
2023/04/14 15:25:27;;;;;;;8.13;2.40;;;17.50;89.70;;;;;;6191236;23;20063;-93
2023/04/14 15:27:54;;;;;;;10.10;2.20;;;17.30;87.70;;;;;;6190744;23;20384;-94
2023/04/14 15:30:23;;;;;;;8.15;1.83;;;17.30;84.80;;;;;;6190578;23;20013;-94
2023/04/14 15:32:52;;;;;;;8.35;2.08;;;17.20;74.30;;;;;;6190710;23;20016;-95
2023/04/14 15:35:17;;;;;;;5.35;1.88;;;17.20;79.90;;;;;;6190339;23;20016;-93
2023/04/14 15:37:43;;;;;;;7.80;2.72;;;17.20;85.50;;;;;;6189460;23;20044;-91
2023/04/14 15:40:09;;;;;;;7.53;2.20;;;17.20;92.10;;;;;;6215348;23;20016;-93
2023/04/14 15:42:36;;;;;;;5.68;2.00;;;17.30;93.00;;;;;;6215328;23;20016;-92
2023/04/14 15:45:01;;;;;;;9.05;2.20;;;17.30;94.60;;;;;;6213571;23;20552;-90
2023/04/14 15:47:27;;;;;;;7.22;1.90;;;17.40;90.60;;;;;;6213653;23;20068;-91
2023/04/14 15:49:53;;;;;;;8.88;2.28;;;17.30;77.30;;;;;;6186705;23;20012;-91
2023/04/14 15:52:19;;;;;;;8.95;2.10;;;17.20;76.40;;;;;;6186211;23;20863;-91
2023/04/14 15:54:45;;;;;;;8.73;2.30;;;17.10;82.30;;;;;;6214143;23;20016;-93
2023/04/14 15:57:11;;;;;;;9.63;2.50;;;17.10;84.60;;;;;;6216527;23;20027;-92
2023/04/14 15:59:37;;;;;;;10.57;2.70;;;17.00;91.00;;;;;;6214462;23;20019;-91
2023/04/14 16:02:03;;;;;;;9.32;2.17;;;17.10;94.00;;;;;;6186536;23;20016;-90
2023/04/14 16:04:28;;;;;;;10.20;2.15;;;17.10;90.10;;;;;;6213222;23;20015;-92
2023/04/14 16:06:55;;;;;;;8.88;1.95;;;17.10;76.80;;;;;;6214152;23;20099;-93
2023/04/14 16:09:22;;;;;;;9.38;2.17;;;17.10;72.00;;;;;;6186386;23;20017;-93
2023/04/14 16:11:47;;;;;;;8.15;2.22;;;17.10;80.60;;;;;;6189399;23;20017;-95
2023/04/14 16:14:13;;;;;;;9.27;1.80;;;17.10;88.30;;;;;;6189428;23;20524;-95
2023/04/14 16:16:39;;;;;;;8.45;2.05;;;17.20;88.60;;;;;;6188601;23;20103;-96
2023/04/14 16:19:08;;;;;;;12.32;2.15;;;17.30;89.40;;;;;;6216658;23;20329;-95
2023/04/14 16:21:33;;;;;;;7.18;1.85;;;17.20;79.30;;;;;;6216473;23;20106;-95
2023/04/14 16:23:59;;;;;;;9.50;2.13;;;17.20;87.70;;;;;;6189242;23;20020;-96
2023/04/14 16:26:24;;;;;;;6.75;1.90;;;17.20;90.40;;;;;;6189537;23;20388;-96
2023/04/14 16:28:51;;;;;;;7.93;1.60;;;17.20;93.00;;;;;;6190042;23;20377;-94
2023/04/14 16:31:17;;;;;;;9.07;1.75;;;17.20;85.00;;;;;;6215929;23;20023;-93
2023/04/14 16:33:43;;;;;;;8.63;1.88;;;17.10;85.20;;;;;;6216601;23;20044;-92
2023/04/14 16:36:08;;;;;;;7.70;1.70;;;17.10;83.10;;;;;;6216048;23;20044;-92
2023/04/14 16:38:34;;;;;;;7.43;1.67;;;17.00;86.70;;;;;;6216048;23;20016;-93
2023/04/14 16:41:01;;;;;;;7.93;2.13;;;17.00;79.40;;;;;;6189837;23;20017;-92
2023/04/14 16:43:27;;;;;;;7.50;2.10;;;17.00;86.40;;;;;;6216917;23;20099;-93
2023/04/14 16:46:13;;;;;;;7.15;1.80;;;16.90;88.50;;;;;;6186772;23;20074;-92
2023/04/14 16:48:38;;;;;;;7.88;1.88;;;17.00;90.80;;;;;;6213986;23;20483;-91
2023/04/14 16:51:09;;;;;;;7.82;2.03;;;16.90;90.20;;;;;;6187861;23;20096;-94
2023/04/14 16:53:35;;;;;;;7.72;2.00;;;17.00;92.10;;;;;;6187371;23;20028;-94
2023/04/14 16:56:04;;;;;;;6.45;1.98;;;17.10;93.30;;;;;;6214868;23;20487;-95
2023/04/14 16:58:30;;;;;;;9.40;2.38;;;17.10;93.40;;;;;;6215610;23;20105;-94
2023/04/14 17:00:56;;;;;;;10.20;2.67;;;17.20;94.80;;;;;;6215786;23;20408;-93
2023/04/14 17:03:21;;;;;;;8.68;2.20;;;17.30;93.40;;;;;;6189129;23;20028;-93
2023/04/14 17:05:47;;;;;;;9.52;2.72;;;17.40;94.00;;;;;;6188468;23;20036;-92
2023/04/14 17:08:13;;;;;;;10.85;2.42;;;17.40;94.60;;;;;;6187106;23;20016;-93
2023/04/14 17:10:40;;;;;;;10.10;3.10;;;17.50;94.50;;;;;;6215154;23;20441;-94
2023/04/14 17:13:06;;;;;;;10.93;3.22;;;17.60;94.70;;;;;;6189499;23;20408;-92
2023/04/14 17:15:32;;;;;;;8.13;3.17;;;17.60;95.10;;;;;;6186711;23;20013;-91
2023/04/14 17:17:58;;;;;;;8.45;3.33;;;17.70;94.60;;;;;;6187218;23;20017;-94
2023/04/14 17:20:24;;;;;;;12.05;3.33;;;17.70;93.90;;;;;;6214218;23;20703;-93
2023/04/14 17:22:56;;;;;;;8.25;2.97;;;17.70;92.10;;;;;;6189284;23;20095;-93
2023/04/14 17:25:24;;;;;;;11.02;3.63;;;17.70;92.20;;;;;;6216939;23;20528;-92
2023/04/14 17:27:50;;;;;;;9.55;3.28;;;17.70;92.60;;;;;;6213681;23;20471;-93
2023/04/14 17:30:16;;;;;;;8.88;3.35;;;17.60;92.50;;;;;;6188565;23;20099;-92
2023/04/14 17:32:43;;;;;;;12.30;3.45;;;17.60;92.70;;;;;;6187119;23;20031;-91
2023/04/14 17:35:09;;;;;;;9.95;3.78;;;17.60;92.80;;;;;;6186314;23;20020;-92
2023/04/14 17:37:35;;;;;;;10.45;3.50;;;17.60;93.20;;;;;;6187962;23;20020;-92
2023/04/14 17:40:04;;;;;;;10.70;3.65;;;17.60;93.50;;;;;;6186250;23;20020;-92
2023/04/14 17:42:31;;;;;;;10.32;3.40;;;17.50;93.70;;;;;;6213629;23;20028;-93
2023/04/14 17:44:57;;;;;;;11.35;3.42;;;17.60;93.80;;;;;;6187410;23;20013;-93
2023/04/14 17:47:25;;;;;;;11.20;4.03;;;17.60;93.80;;;;;;6187242;23;20060;-93
2023/04/14 17:49:53;;;;;;;9.50;3.53;;;17.60;93.70;;;;;;6214746;23;20831;-93
2023/04/14 17:52:19;;;;;;;9.48;3.13;;;17.60;93.90;;;;;;6187949;23;20070;-93
2023/04/14 17:54:45;;;;;;;11.40;3.28;;;17.60;94.00;;;;;;6189726;23;20091;-94
2023/04/14 17:57:12;;;;;;;8.50;2.88;;;17.60;93.80;;;;;;6217439;23;20038;-93
2023/04/14 17:59:40;;;;;;;9.43;2.92;;;17.60;92.80;;;;;;6217103;23;20017;-93
2023/04/14 18:02:07;;;;;;;7.82;3.13;;;17.50;93.50;;;;;;6216070;23;20089;-93
2023/04/14 18:04:33;;;;;;;9.73;3.40;;;17.50;94.00;;;;;;6213859;23;20009;-93
2023/04/14 18:06:59;;;;;;;10.52;3.20;;;17.50;94.00;;;;;;6214059;23;20078;-92
2023/04/14 18:09:25;;;;;;;9.88;3.10;;;17.50;94.20;;;;;;6186683;23;20433;-92
2023/04/14 18:11:51;;;;;;;9.57;3.13;;;17.40;93.80;;;;;;6187558;23;20027;-92
2023/04/14 18:14:16;;;;;;;10.82;3.00;;;17.40;93.90;;;;;;6214013;23;20012;-92
2023/04/14 18:16:42;;;;;;;12.38;4.00;;;17.40;94.00;;;;;;6186022;23;20025;-92
2023/04/14 18:19:08;;;;;;;9.50;4.13;;;17.30;94.10;;;;;;6188499;23;20071;-92
2023/04/14 18:21:33;;;;;;;8.48;3.38;;;17.30;94.30;;;;;;6218255;23;20027;-94
2023/04/14 18:23:59;;;;;;;11.15;4.00;;;17.30;94.30;;;;;;6191016;23;20047;-95
2023/04/14 18:26:28;;;;;;;10.90;3.85;;;17.30;94.40;;;;;;6192673;23;20012;-95
2023/04/14 18:28:55;;;;;;;9.73;3.50;;;17.20;94.50;;;;;;6190837;23;20016;-94
2023/04/14 18:31:20;;;;;;;10.57;3.75;;;17.20;93.80;;;;;;6217331;23;20338;-93
2023/04/14 18:33:46;;;;;;;9.07;3.70;;;17.10;93.50;;;;;;6195783;23;20020;-96
2023/04/14 18:36:11;;;;;;;9.20;3.42;;;17.10;93.80;;;;;;6197348;23;20501;-96
2023/04/14 18:38:37;;;;;;;11.77;3.85;;;17.00;94.30;;;;;;6225092;23;20095;-96
2023/04/14 18:41:04;;;;;;;9.82;3.58;;;17.00;94.70;;;;;;6198329;23;20020;-96
2023/04/14 18:43:33;;;;;;;11.50;3.83;;;17.00;95.10;;;;;;6226699;23;20013;-96
2023/04/14 18:45:59;;;;;;;12.02;3.67;;;17.00;95.50;;;;;;6219687;23;20024;-94
2023/04/14 18:48:25;;;;;;;11.45;4.00;;;16.90;96.00;;;;;;6190468;23;20012;-94
2023/04/14 18:51:06;;;;;;;14.93;3.92;;;16.90;96.50;;;;;;6217124;23;20016;-94
2023/04/14 18:53:32;;;;;;;11.70;4.20;;;16.90;96.90;;;;;;6187457;23;20024;-94
2023/04/14 18:55:58;;;;;;;11.02;4.40;;;16.80;97.10;;;;;;6190488;23;20016;-94
2023/04/14 18:58:24;;;;;;;14.38;4.20;;;16.80;97.20;;;;;;6216928;23;20341;-95
2023/04/14 19:00:50;;;;;;;14.68;4.47;;;16.80;97.30;;;;;;6216922;23;20020;-94
2023/04/14 19:03:17;;;;;;;13.07;4.40;;;16.80;97.70;;;;;;6190948;23;20044;-94
2023/04/14 19:05:43;;;;;;;14.55;4.32;;;16.70;98.00;;;;;;6189592;23;20405;-94
2023/04/14 19:08:08;;;;;;;13.18;3.80;;;16.70;98.30;;;;;;6189750;23;20028;-94
2023/04/14 19:10:35;;;;;;;11.80;3.70;;;16.70;98.50;;;;;;6189368;23;20425;-94
2023/04/14 19:13:01;;;;;;;14.40;4.10;;;16.60;98.80;;;;;;6189670;23;20020;-94